Time;durP1;ratioP1;P1;durP2;ratioP2;P2;SDS_P1;SDS_P2;PMS_P1;PMS_P2;Temp;Humidity;BMP_temperature;BMP_pressure;BME280_temperature;BME280_humidity;BME280_pressure;Samples;Min_cycle;Max_cycle;Signal;HPM_P1;HPM_P2
2021/11/21 00:01:47;;;;;;;14.73;7.05;;;;;;;9.25;92.97;101461.16;5038397;28;20017;-72
2021/11/21 00:04:12;;;;;;;18.40;7.28;;;;;;;9.23;92.35;101445.81;5056209;28;20496;-73
2021/11/21 00:06:38;;;;;;;13.35;7.63;;;;;;;9.19;93.27;101447.13;5056061;28;20064;-73
2021/11/21 00:09:03;;;;;;;14.90;7.75;;;;;;;9.14;93.20;101444.22;5038195;28;20021;-73
2021/11/21 00:11:29;;;;;;;12.65;7.47;;;;;;;9.14;92.63;101439.06;5056013;28;20029;-72
2021/11/21 00:13:54;;;;;;;14.23;7.50;;;;;;;9.16;93.09;101437.13;5055967;28;20037;-72
2021/11/21 00:16:20;;;;;;;14.02;7.85;;;;;;;9.21;92.96;101444.41;5055904;28;20021;-73
2021/11/21 00:18:46;;;;;;;16.95;7.78;;;;;;;9.18;92.54;101429.25;5055741;28;20100;-73
2021/11/21 00:21:11;;;;;;;14.32;7.63;;;;;;;9.13;92.90;101423.75;5037743;28;20154;-73
2021/11/21 00:23:36;;;;;;;16.30;8.02;;;;;;;9.07;92.54;101414.91;5055373;28;20029;-72
2021/11/21 00:26:02;;;;;;;14.38;7.75;;;;;;;9.08;93.13;101410.53;5055693;28;20455;-72
2021/11/21 00:28:27;;;;;;;19.40;8.38;;;;;;;9.12;92.97;101412.66;5037826;28;20017;-72
2021/11/21 00:30:53;;;;;;;17.10;8.38;;;;;;;9.17;92.70;101409.56;5037803;28;20108;-73
2021/11/21 00:33:19;;;;;;;15.45;8.32;;;;;;;9.09;92.60;101402.66;5055670;28;20028;-72
2021/11/21 00:35:44;;;;;;;13.68;7.68;;;;;;;9.12;93.13;101398.94;5037777;28;20535;-73
2021/11/21 00:38:09;;;;;;;19.00;9.20;;;;;;;9.04;93.08;101400.56;5055474;28;20091;-73
2021/11/21 00:40:35;;;;;;;19.60;9.38;;;;;;;9.12;92.57;101388.63;5055548;28;20490;-73
2021/11/21 00:43:00;;;;;;;19.73;9.38;;;;;;;9.17;92.65;101392.31;5037569;28;20049;-73
2021/11/21 00:45:27;;;;;;;17.75;9.43;;;;;;;9.20;92.37;101389.41;5037500;28;20023;-73
2021/11/21 00:47:53;;;;;;;20.38;9.48;;;;;;;9.24;92.23;101382.97;5055394;28;20052;-73
2021/11/21 00:50:24;;;;;;;18.58;9.70;;;;;;;9.16;91.74;101379.59;5055302;28;20029;-73
2021/11/21 00:52:54;;;;;;;22.67;9.77;;;;;;;9.06;92.56;101373.81;5055331;28;20040;-73
2021/11/21 00:55:31;;;;;;;19.52;10.23;;;;;;;9.04;92.93;101385.09;5037398;28;20032;-73
2021/11/21 00:57:56;;;;;;;16.70;9.85;;;;;;;9.08;92.77;101385.56;5055434;28;20128;-72
2021/11/21 01:00:21;;;;;;;16.80;10.65;;;;;;;9.09;92.28;101386.38;5055140;28;20055;-72
2021/11/21 01:02:46;;;;;;;18.08;9.88;;;;;;;9.07;92.44;101378.00;5037254;28;20032;-72
2021/11/21 01:05:12;;;;;;;18.88;10.02;;;;;;;9.11;92.43;101371.53;5054907;28;20131;-72
2021/11/21 01:07:37;;;;;;;18.48;11.23;;;;;;;9.12;92.00;101380.88;5055029;28;20025;-72
2021/11/21 01:10:09;;;;;;;21.67;11.02;;;;;;;9.04;92.09;101386.88;5037115;28;20094;-72
2021/11/21 01:12:35;;;;;;;21.58;10.88;;;;;;;9.05;92.28;101375.56;5037029;28;20060;-73
2021/11/21 01:15:01;;;;;;;19.95;11.60;;;;;;;9.06;92.30;101381.53;5054901;28;20163;-73
2021/11/21 01:17:26;;;;;;;18.73;11.77;;;;;;;9.02;92.33;101371.53;5054785;28;20021;-73
2021/11/21 01:19:52;;;;;;;22.35;12.05;;;;;;;9.09;92.47;101374.31;5036393;28;20402;-73
2021/11/21 01:22:17;;;;;;;20.10;11.32;;;;;;;9.10;92.69;101369.94;5036800;28;20070;-73
2021/11/21 01:24:42;;;;;;;21.88;11.52;;;;;;;9.09;92.63;101363.16;5054929;28;20033;-73
2021/11/21 01:27:08;;;;;;;20.20;12.32;;;;;;;9.06;92.47;101360.91;5036692;28;20020;-73
2021/11/21 01:29:33;;;;;;;20.88;12.05;;;;;;;9.09;92.50;101356.25;5054896;28;20028;-73
2021/11/21 01:31:59;;;;;;;21.70;12.77;;;;;;;9.04;92.56;101363.66;5036672;28;20025;-73
2021/11/21 01:34:25;;;;;;;20.65;12.45;;;;;;;9.12;92.80;101368.00;5054451;28;20387;-72
2021/11/21 01:36:50;;;;;;;19.92;12.73;;;;;;;9.11;93.28;101361.22;5054320;28;20060;-73
2021/11/21 01:39:15;;;;;;;24.33;13.77;;;;;;;9.12;92.85;101358.50;5054383;28;20024;-72
2021/11/21 01:41:42;;;;;;;22.25;12.95;;;;;;;9.13;92.73;101360.09;5054297;28;20525;-72
2021/11/21 01:44:11;;;;;;;22.05;13.27;;;;;;;9.06;93.28;101350.59;5036341;28;20024;-72
2021/11/21 01:46:39;;;;;;;24.02;12.85;;;;;;;9.03;93.58;101347.41;5054212;28;20020;-72
2021/11/21 01:49:06;;;;;;;21.70;11.90;;;;;;;9.07;92.96;101341.91;5054189;28;20025;-72
2021/11/21 01:51:31;;;;;;;24.77;12.23;;;;;;;9.07;93.42;101342.72;5054249;28;20040;-72
2021/11/21 01:53:57;;;;;;;21.38;13.02;;;;;;;9.10;93.26;101336.44;5054316;28;20033;-72
2021/11/21 01:56:24;;;;;;;21.00;12.13;;;;;;;9.19;93.28;101343.19;5036226;28;20436;-73
2021/11/21 01:58:49;;;;;;;21.70;12.38;;;;;;;9.17;92.90;101325.28;5036235;28;20083;-73
2021/11/21 02:01:15;;;;;;;20.90;11.82;;;;;;;9.13;93.20;101325.78;5036138;28;20060;-72
2021/11/21 02:03:40;;;;;;;20.98;12.50;;;;;;;9.07;93.51;101323.88;5054292;28;20040;-73
2021/11/21 02:06:06;;;;;;;18.85;12.32;;;;;;;9.11;93.65;101322.56;5053966;28;20104;-73
2021/11/21 02:08:31;;;;;;;19.58;11.95;;;;;;;9.15;93.45;101316.09;5054107;28;20028;-72
2021/11/21 02:11:00;;;;;;;24.08;12.43;;;;;;;9.09;93.58;101311.59;5054442;28;20035;-73
2021/11/21 02:13:25;;;;;;;20.40;11.93;;;;;;;9.00;93.71;101300.50;5053825;28;20021;-72
2021/11/21 02:15:50;;;;;;;20.00;11.75;;;;;;;9.14;93.47;101311.91;5035849;28;20032;-72
2021/11/21 02:18:16;;;;;;;21.35;11.98;;;;;;;9.09;94.18;101303.84;5053647;28;20021;-73
2021/11/21 02:20:41;;;;;;;21.33;11.75;;;;;;;9.09;93.88;101302.09;5053723;28;20025;-73
2021/11/21 02:23:07;;;;;;;23.57;11.57;;;;;;;9.15;93.79;101298.03;5053716;28;20033;-73
2021/11/21 02:25:35;;;;;;;25.17;11.32;;;;;;;9.13;93.53;101294.84;5053659;28;20279;-73
2021/11/21 02:28:00;;;;;;;19.02;11.43;;;;;;;9.09;93.72;101293.53;5053593;28;20017;-73
2021/11/21 02:30:25;;;;;;;25.98;11.95;;;;;;;9.10;93.79;101287.44;5053112;28;20031;-73
2021/11/21 02:32:53;;;;;;;23.40;12.10;;;;;;;9.11;94.04;101282.09;5053147;28;20057;-72
2021/11/21 02:35:20;;;;;;;21.48;12.13;;;;;;;9.11;94.44;101276.16;5053471;28;20028;-73
2021/11/21 02:37:46;;;;;;;22.92;11.73;;;;;;;9.11;93.97;101276.16;5053447;28;20047;-73
2021/11/21 02:40:12;;;;;;;22.10;12.68;;;;;;;9.08;94.13;101271.31;5053374;28;20028;-73
2021/11/21 02:42:38;;;;;;;19.52;12.57;;;;;;;9.12;94.38;101264.84;5053408;28;20112;-72
2021/11/21 02:45:07;;;;;;;22.48;12.32;;;;;;;9.10;94.94;101277.13;5053389;28;20117;-72
2021/11/21 02:47:32;;;;;;;21.17;11.60;;;;;;;9.15;94.38;101265.34;5035427;28;20017;-73
2021/11/21 02:49:59;;;;;;;23.42;12.63;;;;;;;9.13;94.37;101264.69;5054099;28;20032;-73
2021/11/21 02:52:25;;;;;;;22.20;12.55;;;;;;;9.07;94.48;101260.22;5053271;28;20340;-73
2021/11/21 02:54:52;;;;;;;20.90;12.25;;;;;;;9.15;94.42;101256.78;5053251;28;20035;-72
2021/11/21 02:57:18;;;;;;;23.88;13.75;;;;;;;9.14;94.94;101258.56;5053741;28;20053;-73
2021/11/21 02:59:43;;;;;;;18.80;11.80;;;;;;;9.17;94.51;101244.53;5053264;28;20118;-73
2021/11/21 03:02:08;;;;;;;17.05;10.90;;;;;;;9.14;94.47;101255.97;5053233;28;20043;-73
2021/11/21 03:04:34;;;;;;;19.75;11.00;;;;;;;9.14;94.40;101239.72;5053009;28;20041;-72
2021/11/21 03:06:59;;;;;;;17.05;10.95;;;;;;;9.15;94.92;101249.88;5053765;28;20444;-73
2021/11/21 03:09:24;;;;;;;20.15;10.23;;;;;;;9.14;95.16;101245.66;5035383;28;20032;-72
2021/11/21 03:11:54;;;;;;;17.27;9.77;;;;;;;9.27;94.79;101251.13;5053233;28;20175;-72
2021/11/21 03:14:20;;;;;;;17.60;10.00;;;;;;;9.27;94.72;101247.75;5053093;28;20387;-72
2021/11/21 03:16:47;;;;;;;14.25;9.95;;;;;;;9.21;94.62;101241.47;5035230;28;20028;-72
2021/11/21 03:19:12;;;;;;;16.08;9.48;;;;;;;9.27;94.77;101238.22;5035257;28;20025;-73
2021/11/21 03:21:38;;;;;;;16.85;9.68;;;;;;;9.28;94.78;101241.59;5053086;28;20074;-73
2021/11/21 03:24:03;;;;;;;11.63;8.45;;;;;;;9.37;94.46;101255.28;5053553;28;20043;-73
2021/11/21 03:26:29;;;;;;;12.02;8.13;;;;;;;9.30;95.20;101249.19;5053294;28;20024;-72
2021/11/21 03:28:54;;;;;;;10.27;6.10;;;;;;;9.35;94.84;101247.72;5035172;28;20021;-73
2021/11/21 03:31:20;;;;;;;8.45;4.80;;;;;;;9.43;94.32;101247.66;5052974;28;20356;-73
2021/11/21 03:33:45;;;;;;;7.38;4.15;;;;;;;9.50;94.14;101250.41;5053537;28;20074;-73
2021/11/21 03:36:10;;;;;;;5.50;3.60;;;;;;;9.47;94.35;101254.09;5052958;28;20033;-73
2021/11/21 03:38:36;;;;;;;8.23;3.22;;;;;;;9.51;93.86;101246.84;5052905;28;20040;-72
2021/11/21 03:41:01;;;;;;;6.88;3.13;;;;;;;9.46;94.06;101247.31;5053368;28;20033;-71
2021/11/21 03:43:27;;;;;;;7.10;3.20;;;;;;;9.48;94.11;101242.81;5055375;28;20025;-73
2021/11/21 03:45:52;;;;;;;6.63;2.80;;;;;;;9.58;93.85;101242.63;5056806;28;20020;-73
2021/11/21 03:48:17;;;;;;;9.35;2.70;;;;;;;9.54;93.50;101238.75;5056650;28;20068;-73
2021/11/21 03:50:42;;;;;;;6.18;2.67;;;;;;;9.54;93.54;101231.00;5056578;28;20024;-73
2021/11/21 03:53:08;;;;;;;7.50;2.40;;;;;;;9.52;93.16;101237.31;5056538;28;20037;-73
2021/11/21 03:55:33;;;;;;;4.93;2.67;;;;;;;9.57;93.57;101238.41;5056437;28;20051;-73
2021/11/21 03:57:59;;;;;;;5.68;2.17;;;;;;;9.56;93.05;101246.34;5038420;28;20041;-73
2021/11/21 04:00:26;;;;;;;7.22;2.10;;;;;;;9.46;94.15;101243.94;5056308;28;20051;-73
2021/11/21 04:02:53;;;;;;;6.82;1.90;;;;;;;9.52;93.49;101242.47;5038440;28;20365;-73
2021/11/21 04:05:19;;;;;;;4.60;2.38;;;;;;;9.57;93.85;101246.16;5056176;28;20496;-73
2021/11/21 04:07:44;;;;;;;10.02;2.42;;;;;;;9.50;93.68;101252.97;5056207;28;20096;-73
2021/11/21 04:10:10;;;;;;;10.13;2.40;;;;;;;9.51;93.58;101256.34;5056115;28;20112;-73
2021/11/21 04:12:36;;;;;;;16.60;2.60;;;;;;;9.56;93.68;101251.50;5056076;28;20017;-73
2021/11/21 04:15:02;;;;;;;10.13;2.40;;;;;;;9.51;93.85;101251.19;5056365;28;20028;-73
2021/11/21 04:17:31;;;;;;;5.05;1.73;;;;;;;9.54;93.78;101250.84;5056173;28;20025;-73
2021/11/21 04:19:56;;;;;;;3.58;1.35;;;;;;;9.49;93.86;101254.75;5056179;28;20016;-73
2021/11/21 04:22:22;;;;;;;5.50;1.27;;;;;;;9.54;93.69;101250.84;5037970;28;20166;-73
2021/11/21 04:24:47;;;;;;;3.42;1.40;;;;;;;9.47;93.77;101240.41;5055865;28;20029;-73
2021/11/21 04:27:13;;;;;;;7.55;1.45;;;;;;;9.48;93.89;101237.66;5056063;28;20486;-73
2021/11/21 04:29:38;;;;;;;3.65;1.02;;;;;;;9.46;93.96;101246.53;5055854;28;20098;-73
2021/11/21 04:32:04;;;;;;;6.07;1.08;;;;;;;9.48;93.67;101239.44;5056265;28;20380;-73
2021/11/21 04:34:29;;;;;;;7.35;1.10;;;;;;;9.46;93.99;101238.78;5037839;28;20029;-73
2021/11/21 04:36:55;;;;;;;8.02;1.33;;;;;;;9.45;93.91;101250.09;5055592;28;20051;-73
2021/11/21 04:39:22;;;;;;;12.48;1.35;;;;;;;9.43;94.12;101252.03;5055622;28;20032;-73
2021/11/21 04:41:48;;;;;;;6.22;1.40;;;;;;;9.42;94.11;101264.13;5055527;28;20033;-74
2021/11/21 04:44:13;;;;;;;6.07;1.10;;;;;;;9.37;94.04;101253.50;5055517;28;20020;-73
2021/11/21 04:46:38;;;;;;;5.38;1.35;;;;;;;9.43;94.36;101245.06;5038346;28;20041;-73
2021/11/21 04:49:04;;;;;;;4.88;1.25;;;;;;;9.45;93.99;101244.94;5055392;28;20029;-73
2021/11/21 04:51:30;;;;;;;10.43;1.75;;;;;;;9.43;93.60;101242.50;5055883;28;20467;-73
2021/11/21 04:53:56;;;;;;;6.40;1.10;;;;;;;9.40;93.79;101244.63;5054257;28;20387;-74
2021/11/21 04:56:22;;;;;;;16.13;1.45;;;;;;;9.41;94.40;101249.63;5055322;28;20028;-74
2021/11/21 04:58:48;;;;;;;3.40;1.38;;;;;;;9.43;94.24;101241.69;5055861;28;20107;-74
2021/11/21 05:01:13;;;;;;;4.53;1.08;;;;;;;9.48;93.99;101249.75;5055247;28;20037;-73
2021/11/21 05:03:38;;;;;;;5.55;1.05;;;;;;;9.54;93.47;101240.53;5054803;28;20043;-73
2021/11/21 05:06:04;;;;;;;6.10;1.30;;;;;;;9.42;93.39;101235.75;5055109;28;20498;-74
2021/11/21 05:08:29;;;;;;;4.35;1.23;;;;;;;9.34;93.62;101230.63;5055275;28;20380;-73
2021/11/21 05:10:54;;;;;;;6.25;1.20;;;;;;;9.33;93.77;101235.94;5037088;28;20021;-73
2021/11/21 05:13:19;;;;;;;9.90;1.20;;;;;;;9.33;94.01;101236.75;5055535;28;20464;-73
2021/11/21 05:15:45;;;;;;;9.25;1.40;;;;;;;9.31;93.46;101227.56;5054954;28;20024;-73
2021/11/21 05:18:10;;;;;;;4.25;1.13;;;;;;;9.20;94.03;101234.69;5054786;28;20112;-74
2021/11/21 05:20:36;;;;;;;9.05;1.40;;;;;;;9.24;93.83;101237.75;5054866;28;20017;-74
2021/11/21 05:23:01;;;;;;;8.38;1.50;;;;;;;9.23;93.84;101233.56;5036870;28;20029;-74
2021/11/21 05:25:27;;;;;;;7.20;1.02;;;;;;;9.29;93.69;101230.31;5054690;28;20040;-74
2021/11/21 05:27:52;;;;;;;3.22;1.17;;;;;;;9.34;93.69;101246.09;5036765;28;20029;-73
2021/11/21 05:30:20;;;;;;;11.88;1.50;;;;;;;9.27;93.50;101229.69;5054598;28;20030;-73
2021/11/21 05:32:46;;;;;;;13.05;1.50;;;;;;;9.33;93.34;101233.38;5036699;28;20017;-73
2021/11/21 05:35:11;;;;;;;9.15;1.10;;;;;;;9.29;93.24;101229.50;5054534;28;20108;-73
2021/11/21 05:37:37;;;;;;;8.68;1.17;;;;;;;9.26;93.11;101235.78;5054897;28;20025;-73
2021/11/21 05:40:08;;;;;;;10.95;1.63;;;;;;;9.24;92.85;101230.81;5054958;28;20071;-73
2021/11/21 05:42:34;;;;;;;5.43;1.20;;;;;;;9.18;93.20;101228.91;5054941;28;20475;-73
2021/11/21 05:44:59;;;;;;;11.48;1.67;;;;;;;9.16;93.03;101230.03;5054299;28;20078;-73
2021/11/21 05:47:25;;;;;;;10.20;1.50;;;;;;;9.12;92.98;101231.34;5054199;28;20044;-73
2021/11/21 05:49:50;;;;;;;9.57;1.48;;;;;;;9.14;92.46;101235.34;5054261;28;20017;-73
2021/11/21 05:52:16;;;;;;;8.48;1.23;;;;;;;9.19;92.19;101238.25;5055025;28;20024;-73
2021/11/21 05:54:43;;;;;;;9.02;1.30;;;;;;;9.21;91.87;101238.09;5036244;28;20111;-73
2021/11/21 05:57:09;;;;;;;11.27;1.48;;;;;;;9.04;92.62;101239.91;5036229;28;20021;-73
2021/11/21 05:59:35;;;;;;;10.93;1.58;;;;;;;9.00;92.25;101234.25;5053969;28;20074;-73
2021/11/21 06:02:02;;;;;;;10.93;1.52;;;;;;;8.98;92.16;101233.66;5053999;28;20029;-73
2021/11/21 06:04:27;;;;;;;10.60;1.48;;;;;;;9.03;92.15;101233.97;5053812;28;20067;-73
2021/11/21 06:06:52;;;;;;;8.85;1.05;;;;;;;9.04;91.95;101239.91;5035966;28;20013;-73
2021/11/21 06:09:18;;;;;;;12.18;2.08;;;;;;;8.96;92.16;101245.09;5053902;28;20463;-73
2021/11/21 06:11:43;;;;;;;12.88;1.65;;;;;;;8.92;91.04;101239.47;5053907;28;20021;-73
2021/11/21 06:14:08;;;;;;;6.05;1.00;;;;;;;8.93;91.80;101248.78;5053890;28;20035;-73
2021/11/21 06:16:33;;;;;;;11.70;1.50;;;;;;;8.91;91.74;101245.56;5053745;28;20025;-73
2021/11/21 06:18:59;;;;;;;13.65;1.65;;;;;;;8.92;90.47;101242.03;5053792;28;20063;-73
2021/11/21 06:21:24;;;;;;;10.38;1.60;;;;;;;8.83;90.28;101237.84;5053717;28;20017;-74
2021/11/21 06:23:49;;;;;;;12.18;1.58;;;;;;;8.77;90.97;101243.66;5053767;28;20021;-73
2021/11/21 06:26:14;;;;;;;8.80;1.42;;;;;;;8.73;91.56;101240.59;5054264;28;20032;-73
2021/11/21 06:28:40;;;;;;;16.85;2.20;;;;;;;8.85;90.36;101232.53;5053920;28;20017;-73
2021/11/21 06:31:05;;;;;;;12.23;1.58;;;;;;;8.85;89.90;101235.91;5053594;28;20016;-73
2021/11/21 06:33:31;;;;;;;9.73;1.38;;;;;;;8.77;89.34;101233.34;5053572;28;20036;-73
2021/11/21 06:35:56;;;;;;;14.07;1.23;;;;;;;8.83;89.02;101237.84;5035646;28;20029;-73
2021/11/21 06:38:22;;;;;;;9.35;1.60;;;;;;;8.79;89.87;101241.72;5053369;28;20017;-72
2021/11/21 06:40:47;;;;;;;11.98;1.48;;;;;;;8.73;89.20;101242.38;5035614;28;20112;-72
2021/11/21 06:43:13;;;;;;;12.25;1.80;;;;;;;8.66;90.54;101244.00;5053872;28;20116;-72
2021/11/21 06:45:38;;;;;;;12.73;2.40;;;;;;;8.59;89.76;101242.06;5035586;28;20055;-73
2021/11/21 06:48:10;;;;;;;16.77;2.05;;;;;;;8.59;90.30;101231.75;5053668;28;20075;-72
2021/11/21 06:50:35;;;;;;;17.10;1.60;;;;;;;8.51;89.40;101234.34;5035533;28;20036;-72
2021/11/21 06:53:01;;;;;;;8.73;1.20;;;;;;;8.50;88.89;101248.19;5053397;28;20025;-73
2021/11/21 06:55:26;;;;;;;14.70;1.48;;;;;;;8.51;90.24;101236.13;5053265;28;20108;-73
2021/11/21 06:57:52;;;;;;;11.90;1.60;;;;;;;8.58;88.91;101239.66;5053231;28;20029;-73
2021/11/21 07:00:17;;;;;;;13.10;2.05;;;;;;;8.59;88.41;101244.66;5053255;28;20035;-73
2021/11/21 07:02:43;;;;;;;8.85;1.25;;;;;;;8.59;88.44;101242.06;5035349;28;20021;-73
2021/11/21 07:05:08;;;;;;;13.98;2.05;;;;;;;8.52;87.92;101254.00;5052997;28;20045;-73
2021/11/21 07:07:35;;;;;;;8.35;2.45;;;;;;;8.51;88.60;101251.56;5053141;28;20021;-73
2021/11/21 07:10:02;;;;;;;11.77;2.05;;;;;;;8.50;88.88;101250.78;5053205;28;20029;-73
2021/11/21 07:12:27;;;;;;;12.73;2.08;;;;;;;8.42;89.26;101261.06;5035219;28;20060;-73
2021/11/21 07:14:53;;;;;;;12.75;1.75;;;;;;;8.36;88.65;101259.91;5053090;28;20435;-73
2021/11/21 07:17:18;;;;;;;9.73;1.58;;;;;;;8.25;89.03;101265.38;5035946;28;20137;-73
2021/11/21 07:19:43;;;;;;;8.15;1.60;;;;;;;8.13;89.58;101267.44;5039180;28;20390;-73
2021/11/21 07:22:09;;;;;;;12.73;2.33;;;;;;;8.16;88.62;101268.09;5039201;28;20029;-74
2021/11/21 07:24:34;;;;;;;13.38;1.95;;;;;;;8.22;89.10;101275.19;5057041;28;20024;-73
2021/11/21 07:30:23;;;;;;;9.68;1.75;;;;;;;8.07;88.66;101264.72;5057119;28;20028;-73
2021/11/21 07:32:48;;;;;;;14.88;1.60;;;;;;;8.10;89.02;101270.34;5038942;28;20032;-73
2021/11/21 07:35:16;;;;;;;10.70;1.77;;;;;;;8.08;88.63;101279.19;5038876;28;20392;-73
2021/11/21 07:37:41;;;;;;;7.95;2.10;;;;;;;8.06;89.73;101281.13;5056432;28;20035;-73
2021/11/21 07:40:10;;;;;;;11.25;1.90;;;;;;;8.05;89.46;101279.50;5038739;28;20024;-73
2021/11/21 07:42:35;;;;;;;15.18;2.58;;;;;;;7.99;88.55;101278.38;5038688;28;20078;-74
2021/11/21 07:45:01;;;;;;;13.68;2.55;;;;;;;7.99;88.45;101280.13;5056612;28;20096;-74
2021/11/21 07:47:26;;;;;;;19.20;3.15;;;;;;;7.94;89.02;101284.94;5038670;28;20020;-73
2021/11/21 07:49:52;;;;;;;9.02;2.20;;;;;;;7.85;88.87;101276.41;5038756;28;20424;-73
2021/11/21 07:52:19;;;;;;;8.15;1.92;;;;;;;7.83;89.17;101281.72;5056476;28;20021;-73
2021/11/21 07:54:45;;;;;;;11.57;1.70;;;;;;;7.85;88.09;101286.69;5056319;28;20099;-73
2021/11/21 07:57:10;;;;;;;13.98;1.50;;;;;;;7.79;88.49;101288.13;5038358;28;20455;-73
2021/11/21 07:59:36;;;;;;;10.02;1.38;;;;;;;7.85;88.95;101289.25;5056226;28;20100;-73
2021/11/21 08:02:01;;;;;;;7.53;1.55;;;;;;;7.88;87.26;101289.78;5056152;28;20029;-73
2021/11/21 08:04:26;;;;;;;8.45;1.80;;;;;;;7.88;87.75;101282.06;5055996;28;20055;-73
2021/11/21 08:06:53;;;;;;;9.18;1.65;;;;;;;7.85;88.13;101287.53;5056229;28;20079;-73
2021/11/21 08:09:18;;;;;;;10.63;2.20;;;;;;;7.81;88.14;101282.84;5038240;28;20097;-73
2021/11/21 08:11:43;;;;;;;12.80;2.05;;;;;;;7.90;87.48;101289.59;5055934;28;20468;-73
2021/11/21 08:14:08;;;;;;;10.77;2.55;;;;;;;7.95;88.37;101294.28;5055961;28;20047;-73
2021/11/21 08:16:34;;;;;;;7.55;2.13;;;;;;;7.95;87.40;101295.09;5038165;28;20033;-73
2021/11/21 08:18:59;;;;;;;11.80;2.55;;;;;;;7.96;87.94;101299.28;5055842;28;20486;-73
2021/11/21 08:21:24;;;;;;;10.65;2.80;;;;;;;7.94;87.95;101305.53;5037918;28;20072;-73
2021/11/21 08:23:49;;;;;;;10.32;3.20;;;;;;;7.94;86.84;101302.97;5056143;28;20029;-73
2021/11/21 08:26:15;;;;;;;8.98;3.28;;;;;;;7.93;87.21;101302.16;5055741;28;20419;-73
2021/11/21 08:28:40;;;;;;;17.75;3.17;;;;;;;7.90;87.88;101300.69;5054710;28;20036;-73
2021/11/21 08:31:07;;;;;;;13.75;3.85;;;;;;;7.98;86.33;101307.66;5055401;28;20390;-73
2021/11/21 08:33:32;;;;;;;15.02;4.05;;;;;;;8.04;86.38;101304.44;5055516;28;20029;-73
2021/11/21 08:35:58;;;;;;;9.43;2.90;;;;;;;8.07;85.74;101308.47;5055582;28;20468;-73
2021/11/21 08:38:23;;;;;;;8.88;2.25;;;;;;;8.13;86.00;101308.66;5037549;28;20021;-72
2021/11/21 08:40:48;;;;;;;5.93;1.65;;;;;;;8.16;86.90;101311.88;5055488;28;20052;-73
2021/11/21 08:43:14;;;;;;;8.68;1.83;;;;;;;8.21;85.72;101312.22;5037376;28;20025;-73
2021/11/21 08:45:39;;;;;;;20.48;2.20;;;;;;;8.30;85.71;101313.84;5037401;28;20387;-73
2021/11/21 08:48:04;;;;;;;16.58;2.17;;;;;;;8.37;85.66;101312.22;5055197;28;20036;-74
2021/11/21 08:50:30;;;;;;;9.55;1.60;;;;;;;8.49;85.62;101308.41;5037409;28;20395;-73
2021/11/21 08:52:56;;;;;;;10.73;1.50;;;;;;;8.41;84.18;101310.97;5037384;28;20175;-73
2021/11/21 08:55:21;;;;;;;11.32;2.00;;;;;;;8.54;84.01;101311.28;5037201;28;20210;-73
2021/11/21 08:57:46;;;;;;;12.60;2.03;;;;;;;8.77;83.61;101318.38;5055131;28;20033;-74
2021/11/21 09:00:13;;;;;;;13.13;1.60;;;;;;;8.69;84.16;101315.81;5055081;28;20029;-74
2021/11/21 09:02:39;;;;;;;10.10;2.00;;;;;;;8.67;83.71;101312.59;5055054;28;20107;-75
2021/11/21 09:05:09;;;;;;;16.83;2.03;;;;;;;8.75;82.94;101322.91;5036924;28;20045;-74
2021/11/21 09:07:35;;;;;;;9.20;1.60;;;;;;;8.65;83.12;101317.91;5054955;28;20379;-74
2021/11/21 09:10:01;;;;;;;11.30;2.00;;;;;;;8.62;82.25;101320.81;5054884;28;20023;-74
2021/11/21 09:12:26;;;;;;;11.52;1.85;;;;;;;8.61;82.63;101324.38;5054819;28;20043;-74
2021/11/21 09:14:53;;;;;;;12.23;1.80;;;;;;;8.52;82.10;101322.75;5054758;28;20025;-72
2021/11/21 09:17:18;;;;;;;14.85;1.95;;;;;;;8.49;84.28;101323.88;5054942;28;20464;-72
2021/11/21 09:19:44;;;;;;;13.52;1.77;;;;;;;8.42;85.13;101333.19;5054662;28;20032;-73
2021/11/21 09:22:09;;;;;;;9.25;1.90;;;;;;;8.41;83.57;101334.16;5054746;28;20388;-73
2021/11/21 09:24:34;;;;;;;10.38;1.95;;;;;;;8.55;83.06;101333.53;5054845;28;20480;-73
2021/11/21 09:27:00;;;;;;;8.40;1.65;;;;;;;8.64;82.99;101336.13;5055082;28;20063;-73
2021/11/21 09:29:25;;;;;;;7.00;1.95;;;;;;;8.73;82.04;101330.00;5054545;28;20021;-74
2021/11/21 09:31:50;;;;;;;13.45;2.47;;;;;;;9.01;80.69;101333.84;5054520;28;20033;-75
2021/11/21 09:34:16;;;;;;;10.95;2.17;;;;;;;9.06;79.78;101333.34;5054826;28;20025;-73
2021/11/21 09:36:42;;;;;;;8.75;1.90;;;;;;;9.06;79.42;101333.34;5054325;28;20024;-73
2021/11/21 09:39:10;;;;;;;9.93;1.98;;;;;;;8.98;80.87;101334.19;5054279;28;20043;-73
2021/11/21 09:41:35;;;;;;;15.90;2.60;;;;;;;9.66;79.63;101342.41;5053891;28;20021;-74
2021/11/21 09:44:01;;;;;;;10.90;2.22;;;;;;;15.90;57.31;101332.91;5054218;28;20036;-74
2021/11/21 09:46:26;;;;;;;8.00;2.05;;;;;;;18.88;47.67;101326.19;5054436;28;20398;-75
2021/11/21 09:48:52;;;;;;;7.93;1.88;;;;;;;19.85;44.56;101337.81;5036414;28;20020;-74
2021/11/21 09:51:18;;;;;;;10.25;2.25;;;;;;;20.83;41.79;101330.50;5054078;28;20115;-74
2021/11/21 09:53:43;;;;;;;8.63;2.13;;;;;;;21.28;40.55;101321.59;5036114;28;20475;-74
2021/11/21 09:56:08;;;;;;;15.50;2.60;;;;;;;21.44;39.09;101327.09;5053981;28;20491;-75
2021/11/21 09:58:33;;;;;;;11.02;2.20;;;;;;;20.88;40.03;101327.13;5053862;28;20484;-75
2021/11/21 10:00:59;;;;;;;9.90;2.10;;;;;;;21.33;39.49;101326.94;5036009;28;20021;-75
2021/11/21 10:03:24;;;;;;;11.88;2.15;;;;;;;22.17;37.87;101330.16;5053914;28;20080;-74
2021/11/21 10:05:55;;;;;;;9.68;2.00;;;;;;;22.27;37.91;101336.31;5053858;28;20067;-75
2021/11/21 10:08:25;;;;;;;7.60;2.17;;;;;;;21.25;38.99;101335.22;5054662;28;20471;-75
2021/11/21 10:11:08;;;;;;;6.82;2.13;;;;;;;22.20;38.73;101338.34;5035717;28;20124;-75
2021/11/21 10:13:42;;;;;;;7.55;1.92;;;;;;;22.15;36.79;101326.97;5036194;28;20493;-75
2021/11/21 10:16:16;;;;;;;9.07;1.90;;;;;;;23.57;34.09;101328.84;5053738;28;20075;-75
2021/11/21 10:18:47;;;;;;;7.00;2.08;;;;;;;23.63;34.45;101322.50;5053800;28;20036;-75
2021/11/21 10:21:15;;;;;;;7.68;2.03;;;;;;;22.41;36.31;101327.97;5053807;28;20403;-75
2021/11/21 10:23:42;;;;;;;9.88;1.70;;;;;;;23.54;34.35;101330.16;5035692;28;20082;-75
2021/11/21 10:26:08;;;;;;;6.43;1.77;;;;;;;22.35;38.35;101334.25;5053489;28;20112;-75
2021/11/21 10:28:33;;;;;;;9.30;1.90;;;;;;;24.12;34.37;101316.00;5054035;28;20432;-75
2021/11/21 10:31:14;;;;;;;12.10;1.80;;;;;;;24.02;33.97;101317.56;5054091;28;20036;-75
2021/11/21 10:33:49;;;;;;;7.80;1.92;;;;;;;25.29;31.32;101320.22;5053634;28;20033;-75
2021/11/21 10:36:23;;;;;;;8.65;1.58;;;;;;;25.56;29.93;101312.66;5053412;28;20025;-75
2021/11/21 10:39:02;;;;;;;7.75;1.70;;;;;;;23.42;35.01;101319.03;5035569;28;20021;-75
2021/11/21 10:41:32;;;;;;;5.13;1.52;;;;;;;24.80;31.23;101320.91;5053840;28;20031;-74
2021/11/21 10:44:10;;;;;;;8.88;2.05;;;;;;;24.12;33.30;101314.13;5053317;28;20480;-74
2021/11/21 10:46:38;;;;;;;5.45;1.60;;;;;;;23.18;34.17;101310.78;5053344;28;20040;-74
2021/11/21 10:49:23;;;;;;;5.32;1.63;;;;;;;23.96;34.06;101315.97;5053466;28;20017;-74
2021/11/21 10:51:58;;;;;;;4.53;1.42;;;;;;;20.84;39.19;101305.81;5052530;28;20032;-74
2021/11/21 10:54:33;;;;;;;5.22;1.60;;;;;;;16.02;49.66;101312.97;5053619;28;20024;-73
2021/11/21 10:57:02;;;;;;;7.60;1.60;;;;;;;13.70;55.19;101324.38;5053046;28;20070;-73
2021/11/21 10:59:31;;;;;;;6.10;1.40;;;;;;;13.70;56.02;101314.00;5053110;28;20498;-73
2021/11/21 11:02:07;;;;;;;8.60;1.60;;;;;;;14.26;55.50;101315.53;5053036;28;20025;-73
2021/11/21 11:04:32;;;;;;;5.47;1.67;;;;;;;18.75;42.78;101318.56;5035025;28;20051;-74
2021/11/21 11:07:10;;;;;;;10.55;1.70;;;;;;;20.71;38.57;101311.41;5053103;28;20029;-74
2021/11/21 11:09:35;;;;;;;7.05;1.70;;;;;;;22.79;33.44;101321.66;5053283;28;20021;-74
2021/11/21 11:12:00;;;;;;;4.37;1.57;;;;;;;21.36;37.98;101309.88;5052960;28;20025;-74
2021/11/21 11:14:26;;;;;;;6.70;1.48;;;;;;;22.49;35.84;101317.78;5053318;28;20696;-74
2021/11/21 11:16:56;;;;;;;11.70;1.70;;;;;;;22.05;36.70;101314.53;5053227;28;20028;-75
2021/11/21 11:19:24;;;;;;;6.97;1.48;;;;;;;21.65;37.13;101313.09;5053354;28;20029;-75
2021/11/21 11:21:51;;;;;;;6.43;1.67;;;;;;;21.04;39.46;101315.81;5035967;28;20090;-74
2021/11/21 11:24:20;;;;;;;7.38;1.65;;;;;;;20.04;41.12;101320.06;5053474;28;20461;-75
2021/11/21 11:26:46;;;;;;;8.48;2.15;;;;;;;18.87;42.66;101323.78;5053007;28;20468;-74